Time;durP1;ratioP1;P1;durP2;ratioP2;P2;SDS_P1;SDS_P2;PMS_P1;PMS_P2;Temp;Humidity;BMP_temperature;BMP_pressure;BME280_temperature;BME280_humidity;BME280_pressure;Samples;Min_cycle;Max_cycle;Signal;HPM_P1;HPM_P2
2023/12/27 00:02:00;;;;;;;0.70;0.70;;;;;;;6.58;94.22;99149.28;4867433;29;20039;-79
2023/12/27 00:04:26;;;;;;;0.70;0.70;;;;;;;6.62;94.06;99147.72;4865493;29;20061;-78
2023/12/27 00:06:52;;;;;;;0.73;0.73;;;;;;;6.61;94.09;99145.88;4881700;29;20037;-78
2023/12/27 00:09:18;;;;;;;0.80;0.80;;;;;;;6.55;94.01;99157.06;4866903;29;20604;-78
2023/12/27 00:11:43;;;;;;;0.80;0.80;;;;;;;6.62;94.41;99163.63;4866822;29;20136;-78
2023/12/27 00:14:09;;;;;;;0.70;0.70;;;;;;;6.75;93.82;99171.34;4865602;29;20040;-78
2023/12/27 00:16:35;;;;;;;0.70;0.70;;;;;;;6.64;93.93;99167.25;4866552;29;20039;-79
2023/12/27 00:19:00;;;;;;;0.70;0.70;;;;;;;6.67;94.33;99167.44;4868859;29;20033;-78
2023/12/27 00:21:25;;;;;;;0.60;0.60;;;;;;;6.64;94.13;99160.22;4869099;29;20101;-78
2023/12/27 00:23:51;;;;;;;0.80;0.80;;;;;;;6.62;94.51;99153.94;4865915;29;20045;-78
2023/12/27 00:26:16;;;;;;;0.80;0.80;;;;;;;6.58;94.54;99159.91;4867951;29;20065;-78
2023/12/27 00:28:42;;;;;;;0.70;0.70;;;;;;;6.58;94.73;99153.69;4866297;29;20052;-78
2023/12/27 00:31:08;;;;;;;0.70;0.70;;;;;;;6.59;94.78;99153.75;4869066;29;20096;-79
2023/12/27 00:33:33;;;;;;;0.75;0.75;;;;;;;6.56;94.64;99148.28;4867367;29;20049;-79
2023/12/27 00:35:58;;;;;;;0.70;0.70;;;;;;;6.69;94.29;99150.75;4865934;29;20059;-79
2023/12/27 00:38:24;;;;;;;0.70;0.70;;;;;;;6.66;94.30;99157.66;4863505;29;20044;-79
2023/12/27 00:40:49;;;;;;;0.70;0.70;;;;;;;6.69;94.21;99155.13;4865372;29;20045;-78
2023/12/27 00:43:16;;;;;;;0.70;0.70;;;;;;;6.74;93.72;99158.03;4867373;29;20135;-78
2023/12/27 00:45:41;;;;;;;0.70;0.70;;;;;;;6.77;93.27;99151.16;4868217;29;20913;-78
2023/12/27 00:48:07;;;;;;;0.70;0.70;;;;;;;6.83;93.43;99154.09;4881028;29;20041;-79
2023/12/27 00:50:32;;;;;;;0.60;0.60;;;;;;;6.80;93.01;99160.97;4865985;29;20041;-79
2023/12/27 00:52:58;;;;;;;0.70;0.70;;;;;;;6.81;93.40;99160.19;4868327;29;20070;-79
2023/12/27 00:55:23;;;;;;;0.80;0.80;;;;;;;6.94;92.78;99162.59;4881094;29;20037;-78
2023/12/27 00:57:49;;;;;;;0.70;0.70;;;;;;;6.91;92.55;99159.81;4881734;29;20042;-78
2023/12/27 01:00:15;;;;;;;0.70;0.70;;;;;;;6.82;92.68;99149.63;4881064;29;20068;-77
2023/12/27 01:02:40;;;;;;;0.70;0.70;;;;;;;6.89;92.36;99148.19;4881846;29;20056;-77
2023/12/27 01:05:07;;;;;;;0.70;0.70;;;;;;;6.78;92.63;99142.34;4880476;29;20062;-78
2023/12/27 01:07:33;;;;;;;0.80;0.80;;;;;;;6.73;92.77;99140.31;4866774;29;20045;-78
2023/12/27 01:09:58;;;;;;;0.70;0.70;;;;;;;6.68;93.37;99145.38;4866050;29;20429;-78
2023/12/27 01:12:24;;;;;;;0.63;0.63;;;;;;;6.58;93.57;99143.09;4859539;29;20571;-77
2023/12/27 01:14:49;;;;;;;0.70;0.70;;;;;;;6.65;93.81;99139.91;4867677;29;20047;-78
2023/12/27 01:17:15;;;;;;;0.70;0.70;;;;;;;6.72;93.40;99146.44;4865209;29;20043;-79
2023/12/27 01:19:40;;;;;;;0.73;0.73;;;;;;;6.74;93.48;99155.38;4867773;29;20068;-79
2023/12/27 01:22:06;;;;;;;0.80;0.80;;;;;;;6.66;93.87;99160.31;4880795;29;20503;-79
2023/12/27 01:24:31;;;;;;;0.70;0.70;;;;;;;6.56;94.21;99150.94;4866695;29;20054;-79
2023/12/27 01:26:57;;;;;;;0.73;0.73;;;;;;;6.53;94.86;99149.91;4868373;29;20040;-79
2023/12/27 01:29:24;;;;;;;0.70;0.70;;;;;;;6.62;94.73;99150.38;4859184;29;20064;-78
2023/12/27 01:31:50;;;;;;;0.70;0.70;;;;;;;6.58;94.43;99149.28;4851765;29;20048;-78
2023/12/27 01:34:18;;;;;;;0.70;0.70;;;;;;;6.52;94.50;99148.09;4869247;29;20077;-78
2023/12/27 01:36:43;;;;;;;;;;;;;;;6.48;94.63;99152.31;4869051;29;20084;-79
2023/12/27 01:39:08;;;;;;;0.70;0.70;;;;;;;6.51;94.53;99151.53;4867698;29;20413;-79
2023/12/27 01:41:34;;;;;;;0.70;0.70;;;;;;;6.54;94.50;99149.06;4865620;29;20108;-80
2023/12/27 01:43:59;;;;;;;0.70;0.70;;;;;;;6.58;94.67;99161.66;4867894;29;20128;-79
2023/12/27 01:46:26;;;;;;;0.70;0.70;;;;;;;6.60;94.71;99157.31;4868694;29;20104;-80
2023/12/27 01:48:51;;;;;;;0.80;0.80;;;;;;;6.72;94.13;99157.97;4868756;29;20815;-78
2023/12/27 01:51:18;;;;;;;0.70;0.70;;;;;;;6.72;93.90;99151.75;4882868;29;20172;-77
2023/12/27 01:53:44;;;;;;;0.80;0.80;;;;;;;6.84;93.72;99145.31;4869222;29;20132;-77
2023/12/27 01:56:09;;;;;;;0.70;0.70;;;;;;;6.74;93.49;99139.47;4870168;29;20116;-78
2023/12/27 01:58:36;;;;;;;0.80;0.80;;;;;;;6.67;93.52;99133.88;4882988;29;20072;-78
2023/12/27 02:01:01;;;;;;;0.70;0.70;;;;;;;6.67;93.66;99138.25;4883374;29;20136;-78
2023/12/27 02:03:27;;;;;;;0.70;0.70;;;;;;;6.67;93.65;99133.88;4866756;29;20038;-79
2023/12/27 02:05:56;;;;;;;0.80;0.80;;;;;;;6.67;93.74;99133.88;4869240;29;20116;-79
2023/12/27 02:08:23;;;;;;;0.70;0.70;;;;;;;6.67;93.85;99144.47;4883707;29;20570;-79
2023/12/27 02:10:48;;;;;;;0.70;0.70;;;;;;;6.63;93.86;99152.19;4870506;29;20989;-79
2023/12/27 02:13:14;;;;;;;0.70;0.70;;;;;;;6.71;93.88;99153.50;4863987;29;20044;-79
2023/12/27 02:15:41;;;;;;;0.80;0.80;;;;;;;6.78;93.73;99163.56;4870008;29;20041;-79
2023/12/27 02:18:08;;;;;;;0.70;0.70;;;;;;;6.84;93.21;99161.22;4868502;29;20056;-79
2023/12/27 02:20:34;;;;;;;0.70;0.70;;;;;;;6.82;92.82;99152.28;4884155;29;20049;-79
2023/12/27 02:23:05;;;;;;;0.63;0.63;;;;;;;6.87;92.92;99145.47;4868045;29;20056;-79
2023/12/27 02:25:31;;;;;;;0.60;0.60;;;;;;;6.75;93.10;99144.84;4868546;29;20073;-79
2023/12/27 02:28:00;;;;;;;0.80;0.80;;;;;;;6.64;93.75;99141.66;4868548;29;20627;-78
2023/12/27 02:30:27;;;;;;;0.70;0.70;;;;;;;6.59;94.09;99147.56;4853026;29;20044;-78
2023/12/27 02:32:52;;;;;;;0.70;0.70;;;;;;;6.58;94.05;99140.44;4866787;29;20076;-79
2023/12/27 02:35:18;;;;;;;0.70;0.70;;;;;;;6.67;94.10;99130.31;4869985;29;20563;-79
2023/12/27 02:37:44;;;;;;;0.70;0.70;;;;;;;6.64;94.13;99128.38;4871540;29;20148;-77
2023/12/27 02:40:10;;;;;;;0.70;0.70;;;;;;;6.70;93.75;99125.13;4884553;29;20045;-78
2023/12/27 02:42:37;;;;;;;0.70;0.70;;;;;;;6.69;93.73;99125.97;4868230;29;20049;-77
2023/12/27 02:45:03;;;;;;;0.80;0.80;;;;;;;6.64;93.83;99120.44;4867712;29;20057;-78
2023/12/27 02:47:28;;;;;;;0.70;0.70;;;;;;;6.61;93.88;99122.00;4868664;29;20496;-78
2023/12/27 02:49:54;;;;;;;0.70;0.70;;;;;;;6.56;94.15;99124.44;4851886;29;20407;-77
2023/12/27 02:52:19;;;;;;;0.77;0.77;;;;;;;6.54;94.21;99126.09;4867321;29;20423;-78
2023/12/27 02:54:46;;;;;;;0.70;0.70;;;;;;;6.67;94.20;99133.88;4882493;29;20052;-77
2023/12/27 02:57:12;;;;;;;0.70;0.70;;;;;;;6.65;93.77;99129.28;4863862;29;20045;-77
2023/12/27 02:59:37;;;;;;;0.80;0.80;;;;;;;6.70;93.46;99127.78;4869583;29;20123;-77
2023/12/27 03:02:03;;;;;;;0.70;0.70;;;;;;;6.72;93.77;99125.25;4868846;29;20562;-77
2023/12/27 03:04:28;;;;;;;0.70;0.70;;;;;;;6.66;93.52;99115.22;4862452;29;20049;-78
2023/12/27 03:06:53;;;;;;;0.70;0.70;;;;;;;6.65;93.83;99114.28;4869725;29;20044;-78
2023/12/27 03:09:19;;;;;;;0.70;0.70;;;;;;;6.73;93.48;99112.03;4867244;29;20065;-78
2023/12/27 03:11:44;;;;;;;0.70;0.70;;;;;;;6.73;93.50;99117.34;4880521;29;20037;-79
2023/12/27 03:14:11;;;;;;;0.70;0.70;;;;;;;6.61;93.75;99103.47;4865615;29;20400;-79
2023/12/27 03:16:36;;;;;;;0.80;0.80;;;;;;;6.56;93.67;99102.31;4864996;29;20037;-78
2023/12/27 03:19:02;;;;;;;0.70;0.70;;;;;;;6.57;93.98;99098.88;4883736;29;20393;-78
2023/12/27 03:21:27;;;;;;;0.70;0.70;;;;;;;6.62;93.98;99102.66;4881302;29;20052;-78
2023/12/27 03:23:53;;;;;;;0.70;0.70;;;;;;;6.66;93.94;99099.31;4866253;29;20100;-77
2023/12/27 03:26:19;;;;;;;0.75;0.75;;;;;;;6.62;93.65;99098.25;4865988;29;20060;-78
2023/12/27 03:28:44;;;;;;;0.70;0.70;;;;;;;6.56;93.90;99097.00;4865361;29;20041;-78
2023/12/27 03:31:10;;;;;;;0.73;0.73;;;;;;;6.60;93.58;99099.91;4867538;29;20041;-78
2023/12/27 03:33:35;;;;;;;0.70;0.70;;;;;;;6.53;93.79;99094.22;4882828;29;20060;-78
2023/12/27 03:36:01;;;;;;;0.70;0.70;;;;;;;6.46;94.19;99089.44;4882915;29;20052;-78
2023/12/27 03:38:27;;;;;;;0.70;0.70;;;;;;;6.57;94.49;99093.56;4863009;29;20091;-79
2023/12/27 03:40:52;;;;;;;0.70;0.70;;;;;;;6.56;94.05;99097.00;4867790;29;20048;-79
2023/12/27 03:43:18;;;;;;;0.70;0.70;;;;;;;6.57;93.95;99093.56;4869253;29;20037;-79
2023/12/27 03:45:45;;;;;;;0.70;0.70;;;;;;;6.54;93.45;99090.75;4881624;29;20040;-79
2023/12/27 03:48:11;;;;;;;0.60;0.60;;;;;;;6.50;93.59;99088.75;4863167;29;20045;-78
2023/12/27 03:50:36;;;;;;;0.70;0.70;;;;;;;6.46;93.76;99090.34;4867336;29;20043;-79
2023/12/27 03:53:02;;;;;;;0.70;0.70;;;;;;;6.45;93.80;99083.22;4880799;29;20689;-79
2023/12/27 03:55:28;;;;;;;0.70;0.70;;;;;;;6.32;93.64;99084.31;4866699;29;20471;-79
2023/12/27 03:57:53;;;;;;;0.70;0.70;;;;;;;6.20;93.51;99082.81;4863471;29;20036;-78
2023/12/27 04:00:20;;;;;;;0.63;0.63;;;;;;;6.07;93.58;99078.59;4869247;29;20075;-78
2023/12/27 04:02:46;;;;;;;0.70;0.70;;;;;;;6.01;94.05;99075.63;4866477;29;20348;-79
2023/12/27 04:05:13;;;;;;;0.70;0.70;;;;;;;5.95;94.23;99083.28;4862849;29;20049;-78
2023/12/27 04:07:38;;;;;;;0.70;0.70;;;;;;;5.96;95.35;99087.75;4865907;29;20037;-80
2023/12/27 04:10:05;;;;;;;0.70;0.70;;;;;;;6.07;95.23;99083.91;4867621;29;20064;-79
2023/12/27 04:12:31;;;;;;;0.70;0.70;;;;;;;6.09;95.08;99080.53;4865718;29;20037;-79
2023/12/27 04:14:56;;;;;;;0.70;0.70;;;;;;;6.10;95.32;99084.06;4879874;29;20391;-78
2023/12/27 04:17:22;;;;;;;0.70;0.70;;;;;;;6.08;95.23;99080.41;4863099;29;20045;-79
2023/12/27 04:19:48;;;;;;;0.70;0.70;;;;;;;6.04;95.75;99076.72;4867078;29;20033;-78
2023/12/27 04:22:14;;;;;;;0.70;0.70;;;;;;;6.10;95.27;99076.13;4866860;29;20055;-79
2023/12/27 04:24:39;;;;;;;0.70;0.70;;;;;;;5.95;95.72;99080.63;4879801;29;20056;-79
2023/12/27 04:27:05;;;;;;;0.80;0.80;;;;;;;5.99;95.49;99069.34;4848695;29;20033;-81
2023/12/27 04:29:31;;;;;;;0.70;0.70;;;;;;;6.05;95.40;99069.69;4879564;29;20041;-81
2023/12/27 04:31:56;;;;;;;0.70;0.70;;;;;;;5.91;95.18;99072.50;4864383;29;20048;-80
2023/12/27 04:34:22;;;;;;;0.70;0.70;;;;;;;5.91;95.35;99068.91;4861392;29;20071;-79
2023/12/27 04:36:48;;;;;;;0.70;0.70;;;;;;;5.98;95.37;99071.06;4867636;29;20037;-79
2023/12/27 04:39:14;;;;;;;0.70;0.70;;;;;;;5.91;95.18;99075.16;4866695;29;20041;-79
2023/12/27 04:41:40;;;;;;;0.70;0.70;;;;;;;5.83;95.47;99073.78;4868040;29;20755;-79
2023/12/27 04:44:05;;;;;;;0.70;0.70;;;;;;;5.94;95.61;99070.84;4868309;29;20084;-79
2023/12/27 04:46:31;;;;;;;0.77;0.77;;;;;;;5.89;95.70;99066.19;4867778;29;20056;-79
2023/12/27 04:48:56;;;;;;;0.70;0.70;;;;;;;5.95;95.31;99056.78;4869387;29;20040;-79
2023/12/27 04:51:22;;;;;;;0.70;0.70;;;;;;;5.82;95.48;99052.53;4871912;29;20044;-79
2023/12/27 04:53:47;;;;;;;0.70;0.70;;;;;;;5.78;95.57;99054.13;4867073;29;20037;-78
2023/12/27 04:56:16;;;;;;;0.70;0.70;;;;;;;5.78;95.64;99053.22;4865853;29;20053;-78
2023/12/27 04:58:41;;;;;;;0.70;0.70;;;;;;;5.74;95.76;99053.88;4861232;29;20970;-79
2023/12/27 05:01:08;;;;;;;0.90;0.90;;;;;;;5.82;95.76;99044.59;4880836;29;20041;-77
2023/12/27 05:03:35;;;;;;;0.73;0.73;;;;;;;5.88;95.65;99051.13;4866413;29;20415;-78
2023/12/27 05:06:08;;;;;;;0.80;0.80;;;;;;;5.97;95.42;99058.66;4861713;29;20041;-78
2023/12/27 05:08:34;;;;;;;0.70;0.70;;;;;;;6.00;95.19;99057.94;4867919;29;20743;-78
2023/12/27 05:10:59;;;;;;;0.80;0.80;;;;;;;6.06;95.21;99061.81;4868970;29;20127;-78
2023/12/27 05:13:25;;;;;;;0.80;0.80;;;;;;;6.04;94.99;99068.78;4867775;29;20068;-78
2023/12/27 05:15:52;;;;;;;0.70;0.70;;;;;;;6.14;94.95;99064.88;4869080;29;20002;-78
2023/12/27 05:18:17;;;;;;;0.80;0.80;;;;;;;6.06;94.90;99059.16;4869442;29;20155;-78
2023/12/27 05:20:42;;;;;;;0.80;0.80;;;;;;;6.06;94.66;99064.44;4885148;29;20136;-78
2023/12/27 05:23:08;;;;;;;0.70;0.70;;;;;;;6.11;94.53;99060.31;4872442;29;20120;-78
2023/12/27 05:25:35;;;;;;;0.70;0.70;;;;;;;5.97;94.48;99055.13;4869107;29;20749;-79
2023/12/27 05:28:00;;;;;;;0.80;0.80;;;;;;;5.90;94.72;99059.16;4871327;29;20037;-78
2023/12/27 05:30:26;;;;;;;0.70;0.70;;;;;;;5.79;94.82;99060.31;4868694;29;20700;-79
2023/12/27 05:32:51;;;;;;;0.70;0.70;;;;;;;5.65;94.60;99064.88;4872083;29;20414;-79
2023/12/27 05:35:16;;;;;;;0.80;0.80;;;;;;;5.44;94.59;99066.38;4869872;29;20089;-79
2023/12/27 05:37:42;;;;;;;0.75;0.75;;;;;;;5.43;94.99;99062.81;4869292;29;20373;-80
2023/12/27 05:40:08;;;;;;;0.70;0.70;;;;;;;5.42;95.08;99060.09;4883456;29;20423;-80
2023/12/27 05:42:33;;;;;;;0.70;0.70;;;;;;;5.49;95.83;99065.78;4871316;29;20479;-79
2023/12/27 05:44:59;;;;;;;0.80;0.80;;;;;;;5.30;95.77;99053.28;4870427;29;20041;-79
2023/12/27 05:47:24;;;;;;;0.77;0.77;;;;;;;5.19;96.31;99053.53;4868331;29;20042;-79
2023/12/27 05:49:49;;;;;;;0.80;0.80;;;;;;;4.91;96.11;99059.03;4884214;29;20669;-79
2023/12/27 05:52:15;;;;;;;0.80;0.80;;;;;;;4.77;96.88;99060.88;4882828;29;20080;-78
2023/12/27 05:54:40;;;;;;;0.80;0.80;;;;;;;4.78;97.12;99054.75;4870015;29;20768;-79
2023/12/27 05:57:06;;;;;;;0.80;0.80;;;;;;;4.88;97.14;99059.75;4871190;29;20047;-79
2023/12/27 05:59:31;;;;;;;0.80;0.80;;;;;;;5.01;97.72;99048.13;4871831;29;20043;-79
2023/12/27 06:01:57;;;;;;;0.75;0.75;;;;;;;5.22;97.32;99051.97;4868255;29;20445;-79
2023/12/27 06:04:22;;;;;;;0.80;0.80;;;;;;;5.23;97.14;99044.94;4869283;29;20116;-79
2023/12/27 06:06:52;;;;;;;0.70;0.70;;;;;;;5.12;96.97;99028.47;4885289;29;20045;-79
2023/12/27 06:09:18;;;;;;;0.80;0.80;;;;;;;5.06;97.28;99022.84;4868567;29;20053;-79
2023/12/27 06:11:44;;;;;;;0.80;0.80;;;;;;;4.91;97.21;99030.84;4870613;29;20049;-79
2023/12/27 06:14:10;;;;;;;0.80;0.80;;;;;;;5.01;97.07;99030.53;4869256;29;20506;-79
2023/12/27 06:16:35;;;;;;;0.80;0.80;;;;;;;5.05;96.96;99026.31;4866909;29;20041;-80
2023/12/27 06:19:01;;;;;;;0.80;0.80;;;;;;;4.93;97.04;99026.53;4869403;29;20037;-80
2023/12/27 06:21:27;;;;;;;0.80;0.80;;;;;;;4.92;96.68;99021.19;4870239;29;20049;-79
2023/12/27 06:23:53;;;;;;;0.73;0.73;;;;;;;4.74;96.99;99024.59;4870668;29;20041;-80
2023/12/27 06:26:19;;;;;;;0.80;0.80;;;;;;;4.62;96.65;99026.56;4868977;29;20073;-79
2023/12/27 06:28:45;;;;;;;0.80;0.80;;;;;;;4.63;97.14;99020.44;4868946;29;20114;-79
2023/12/27 06:31:10;;;;;;;0.80;0.80;;;;;;;4.56;96.54;99023.56;4869920;29;20053;-79
2023/12/27 06:33:36;;;;;;;0.80;0.80;;;;;;;4.49;96.80;99022.28;4866981;29;20098;-79
2023/12/27 06:36:04;;;;;;;0.80;0.80;;;;;;;4.37;97.28;99017.22;4869711;29;20109;-79
2023/12/27 06:38:29;;;;;;;0.70;0.70;;;;;;;4.35;98.13;99013.56;4866669;29;20389;-79
2023/12/27 06:40:55;;;;;;;0.80;0.80;;;;;;;4.32;98.24;98999.31;4868331;29;20123;-79
2023/12/27 06:43:21;;;;;;;0.80;0.80;;;;;;;4.33;98.18;99004.66;4867178;29;20060;-79
2023/12/27 06:45:47;;;;;;;0.88;0.88;;;;;;;4.21;98.37;99006.56;4869836;29;20068;-79
2023/12/27 06:48:12;;;;;;;0.80;0.80;;;;;;;4.03;98.41;99006.44;4867826;29;20698;-79
2023/12/27 06:50:38;;;;;;;0.82;0.82;;;;;;;4.01;98.42;99015.06;4867766;29;20032;-80
2023/12/27 06:53:03;;;;;;;0.80;0.80;;;;;;;4.01;98.59;99018.63;4867048;29;20045;-78
2023/12/27 06:55:29;;;;;;;0.80;0.80;;;;;;;4.04;98.72;99023.19;4868339;29;20053;-78
2023/12/27 06:57:55;;;;;;;0.80;0.80;;;;;;;4.06;98.30;99032.09;4869584;29;20109;-79
2023/12/27 07:00:20;;;;;;;0.80;0.80;;;;;;;3.97;98.32;99031.53;4867415;29;20056;-79
2023/12/27 07:02:46;;;;;;;0.80;0.80;;;;;;;3.91;98.15;99025.91;4865648;29;20052;-79
2023/12/27 07:05:12;;;;;;;0.77;0.77;;;;;;;3.88;98.13;99038.91;4868096;29;20037;-78
2023/12/27 07:07:38;;;;;;;0.80;0.80;;;;;;;3.84;98.39;99037.84;4867949;29;20048;-78
2023/12/27 07:10:04;;;;;;;0.80;0.80;;;;;;;3.83;98.31;99039.56;4870159;29;20045;-78
2023/12/27 07:12:30;;;;;;;0.90;0.90;;;;;;;3.80;98.55;99035.81;4882144;29;20040;-79
2023/12/27 07:14:56;;;;;;;0.80;0.80;;;;;;;3.99;98.10;99038.75;4867180;29;20045;-78
2023/12/27 07:17:23;;;;;;;0.90;0.90;;;;;;;3.98;97.97;99042.22;4868728;29;20037;-78
2023/12/27 07:19:49;;;;;;;0.80;0.80;;;;;;;3.93;97.95;99037.44;4868801;29;20283;-79
2023/12/27 07:22:14;;;;;;;0.80;0.80;;;;;;;3.99;97.31;99046.66;4868593;29;20321;-79
2023/12/27 07:24:40;;;;;;;0.85;0.85;;;;;;;4.13;96.92;99046.59;4867468;29;20056;-79
2023/12/27 07:27:05;;;;;;;0.90;0.90;;;;;;;4.11;96.89;99042.09;4868916;29;20041;-79
2023/12/27 07:29:33;;;;;;;0.90;0.90;;;;;;;4.25;96.84;99031.44;4867131;29;20540;-79
2023/12/27 07:31:58;;;;;;;;;;;;;;;4.19;96.44;99029.34;4861616;29;20057;-78
2023/12/27 07:34:23;;;;;;;0.90;0.90;;;;;;;4.27;96.71;99036.00;4866788;29;19965;-78
2023/12/27 07:36:49;;;;;;;0.90;0.90;;;;;;;4.30;96.84;99030.88;4868433;29;20033;-78
2023/12/27 07:39:15;;;;;;;0.82;0.82;;;;;;;4.41;96.36;99030.59;4864679;29;20041;-78
2023/12/27 07:41:42;;;;;;;0.70;0.70;;;;;;;4.42;96.23;99035.09;4868211;29;20073;-78
2023/12/27 07:44:09;;;;;;;0.90;0.90;;;;;;;4.37;96.17;99029.53;4866766;29;20371;-78
2023/12/27 07:46:37;;;;;;;0.95;0.95;;;;;;;4.38;96.33;99029.59;4867084;29;20056;-78
2023/12/27 07:49:02;;;;;;;0.73;0.73;;;;;;;4.43;96.29;99023.69;4867494;29;20089;-78
2023/12/27 07:51:28;;;;;;;1.00;1.00;;;;;;;4.37;96.11;99024.25;4884373;29;20036;-78
2023/12/27 07:53:54;;;;;;;0.80;0.80;;;;;;;4.40;96.27;99020.84;4864867;29;20045;-79
2023/12/27 07:56:19;;;;;;;0.90;0.90;;;;;;;4.48;96.18;99030.13;4862294;29;20045;-79
2023/12/27 07:58:48;;;;;;;0.80;0.80;;;;;;;4.58;95.75;99035.13;4866828;29;20040;-79
2023/12/27 08:01:14;;;;;;;0.80;0.80;;;;;;;4.64;95.93;99031.09;4869232;29;20504;-79
2023/12/27 08:03:39;;;;;;;0.80;0.80;;;;;;;4.74;95.70;99029.88;4850897;29;20037;-80
2023/12/27 08:06:06;;;;;;;0.80;0.80;;;;;;;4.87;95.31;99035.03;4866616;29;20048;-79
2023/12/27 08:08:34;;;;;;;0.80;0.80;;;;;;;4.99;94.89;99036.56;4866517;29;20135;-80
2023/12/27 08:11:01;;;;;;;0.82;0.82;;;;;;;5.02;94.90;99044.66;4868305;29;20041;-80
2023/12/27 08:13:26;;;;;;;0.73;0.73;;;;;;;5.23;94.33;99034.38;4866936;29;20049;-80
2023/12/27 08:15:52;;;;;;;0.80;0.80;;;;;;;5.29;94.10;99022.38;4866089;29;20072;-79
2023/12/27 08:18:17;;;;;;;0.80;0.80;;;;;;;5.40;94.31;99023.84;4865527;29;20037;-80
2023/12/27 08:20:43;;;;;;;0.90;0.90;;;;;;;5.44;94.00;99029.31;4880384;29;20476;-80
2023/12/27 08:23:08;;;;;;;0.77;0.77;;;;;;;5.54;93.88;99031.63;4881224;29;20051;-81
2023/12/27 08:25:34;;;;;;;0.90;0.90;;;;;;;5.64;93.04;99023.34;4867359;29;20057;-81
2023/12/27 08:28:01;;;;;;;0.90;0.90;;;;;;;5.58;92.69;99033.63;4868329;29;20037;-81
2023/12/27 08:30:27;;;;;;;0.82;0.82;;;;;;;5.63;92.99;99022.44;4864717;29;20045;-82
2023/12/27 08:32:53;;;;;;;0.80;0.80;;;;;;;5.69;92.53;99032.44;4865255;29;20048;-80
2023/12/27 08:35:18;;;;;;;0.80;0.80;;;;;;;5.61;92.74;99036.44;4864238;28;20352;-80
2023/12/27 08:37:44;;;;;;;0.80;0.80;;;;;;;5.58;92.95;99033.63;4868581;29;20124;-81
2023/12/27 08:40:10;;;;;;;0.80;0.80;;;;;;;5.74;92.86;99025.66;4866177;29;20421;-81
2023/12/27 08:42:35;;;;;;;0.80;0.80;;;;;;;6.11;90.10;99022.31;4844986;29;20048;-81
2023/12/27 08:45:01;;;;;;;0.70;0.70;;;;;;;6.26;91.21;99027.47;4863536;29;20060;-82
2023/12/27 08:47:27;;;;;;;0.80;0.80;;;;;;;6.50;91.57;99019.84;4863675;29;20044;-82
2023/12/27 08:49:55;;;;;;;0.77;0.77;;;;;;;6.82;90.86;99009.09;4866521;29;20040;-82
2023/12/27 08:52:20;;;;;;;0.70;0.70;;;;;;;6.66;89.14;98995.94;4866813;29;20037;-82
2023/12/27 08:54:46;;;;;;;0.80;0.80;;;;;;;6.67;89.83;99003.03;4863034;29;20665;-81
2023/12/27 08:57:11;;;;;;;0.80;0.80;;;;;;;6.68;89.46;99012.81;4866923;29;20044;-83
2023/12/27 08:59:37;;;;;;;0.90;0.90;;;;;;;6.86;88.94;99018.09;4865494;29;20058;-80
2023/12/27 09:02:03;;;;;;;0.80;0.80;;;;;;;6.90;88.41;99015.66;4864306;29;20569;-82
2023/12/27 09:04:30;;;;;;;0.80;0.80;;;;;;;7.03;88.11;99002.97;4878859;29;20065;-80
2023/12/27 09:06:55;;;;;;;0.80;0.80;;;;;;;7.09;87.88;98997.94;4868073;29;20065;-80
2023/12/27 09:09:21;;;;;;;0.70;0.70;;;;;;;7.29;85.74;98997.16;4867726;29;20072;-80
2023/12/27 09:11:46;;;;;;;0.80;0.80;;;;;;;7.44;82.31;98983.66;4862418;29;20048;-80
2023/12/27 09:14:13;;;;;;;0.70;0.70;;;;;;;7.59;80.85;98962.22;4867687;29;20055;-81
2023/12/27 09:16:38;;;;;;;0.80;0.80;;;;;;;7.61;79.72;98960.53;4866987;29;20041;-81
2023/12/27 09:19:04;;;;;;;0.70;0.70;;;;;;;7.62;78.58;98962.38;4864957;29;20525;-80
2023/12/27 09:21:30;;;;;;;0.77;0.77;;;;;;;7.68;78.99;98959.97;4884124;29;20551;-81
2023/12/27 09:23:55;;;;;;;0.80;0.80;;;;;;;7.76;78.68;98955.91;4866853;29;20049;-80
2023/12/27 09:26:21;;;;;;;0.80;0.80;;;;;;;7.85;77.25;98952.72;4867438;29;20049;-81
2023/12/27 09:28:46;;;;;;;0.80;0.80;;;;;;;7.85;77.71;98944.75;4866911;29;20550;-81
2023/12/27 09:31:12;;;;;;;0.70;0.70;;;;;;;7.95;76.73;98952.25;4867118;29;20044;-81
2023/12/27 09:33:37;;;;;;;0.80;0.80;;;;;;;8.10;75.89;98946.72;4869111;29;20044;-81
2023/12/27 09:36:03;;;;;;;0.80;0.80;;;;;;;9.07;72.57;98955.13;4869336;29;20060;-81
2023/12/27 09:38:28;;;;;;;0.80;0.80;;;;;;;8.99;72.15;98954.81;4866973;29;20555;-83
2023/12/27 09:40:54;;;;;;;0.70;0.70;;;;;;;9.06;72.97;98953.31;4873877;29;20065;-83
2023/12/27 09:43:21;;;;;;;0.77;0.77;;;;;;;9.19;70.46;98954.66;4867444;29;20075;-82
2023/12/27 09:45:48;;;;;;;0.70;0.70;;;;;;;8.81;71.58;98963.81;4880197;29;20055;-83
2023/12/27 09:48:15;;;;;;;0.80;0.80;;;;;;;9.28;70.52;98949.69;4865111;29;20053;-81
2023/12/27 09:50:41;;;;;;;;;;;;;;;10.50;67.11;98948.72;4868186;29;20048;-82
2023/12/27 09:53:09;;;;;;;0.80;0.80;;;;;;;10.58;65.07;98946.28;4867009;29;19927;-82
2023/12/27 09:55:34;;;;;;;0.70;0.70;;;;;;;11.24;62.27;98943.03;4867896;29;20124;-82
2023/12/27 09:58:01;;;;;;;0.60;0.60;;;;;;;10.43;64.51;98930.69;4867827;29;20143;-82
2023/12/27 10:00:30;;;;;;;0.60;0.60;;;;;;;11.29;61.39;98918.25;4878215;29;20053;-82
2023/12/27 10:03:02;;;;;;;0.60;0.60;;;;;;;10.88;61.14;98935.72;4866735;29;20919;-83
2023/12/27 10:05:43;;;;;;;0.60;0.60;;;;;;;11.55;61.26;98932.38;4883926;29;20056;-82
2023/12/27 10:08:10;;;;;;;0.55;0.55;;;;;;;11.74;59.04;98931.13;4871074;29;20551;-82
2023/12/27 10:10:36;;;;;;;0.52;0.52;;;;;;;11.45;58.94;98922.28;4870335;29;21370;-81
2023/12/27 10:13:03;;;;;;;0.50;0.50;;;;;;;12.92;54.98;98918.06;4885979;29;20125;-81
2023/12/27 10:15:29;;;;;;;0.50;0.50;;;;;;;14.26;51.83;98913.63;4863183;29;20116;-82
2023/12/27 10:17:54;;;;;;;0.40;0.40;;;;;;;14.43;50.02;98906.78;4882762;29;20072;-84
2023/12/27 10:20:33;;;;;;;0.30;0.30;;;;;;;14.01;48.70;98905.16;4884818;29;20767;-83
2023/12/27 10:23:00;;;;;;;0.38;0.38;;;;;;;13.33;51.84;98910.06;4885800;29;20044;-84
2023/12/27 10:25:28;;;;;;;0.40;0.40;;;;;;;13.66;49.94;98908.97;4886329;29;20093;-82
2023/12/27 10:27:54;;;;;;;0.30;0.30;;;;;;;15.01;47.54;98890.69;4902721;29;20073;-82
2023/12/27 10:30:21;;;;;;;0.40;0.40;;;;;;;14.86;47.11;98894.06;4887274;29;20037;-84
2023/12/27 10:33:00;;;;;;;0.40;0.40;;;;;;;15.51;45.59;98898.50;4883330;29;20072;-87
2023/12/27 10:35:27;;;;;;;0.30;0.30;;;;;;;14.12;48.52;98887.47;4880626;29;20048;-84
2023/12/27 10:38:04;;;;;;;0.30;0.30;;;;;;;12.88;51.39;98880.47;4880115;29;20040;-84
2023/12/27 10:40:30;;;;;;;0.30;0.30;;;;;;;12.20;54.82;98877.97;4876566;29;20052;-84
2023/12/27 10:42:57;;;;;;;0.30;0.30;;;;;;;11.86;53.77;98863.75;4873175;29;20037;-85
2023/12/27 10:45:22;;;;;;;0.40;0.40;;;;;;;12.00;53.33;98862.31;4870912;29;20139;-82
2023/12/27 10:47:51;;;;;;;0.50;0.50;;;;;;;13.42;51.01;98839.69;4868846;29;20128;-83
2023/12/27 10:50:19;;;;;;;0.50;0.50;;;;;;;15.58;45.43;98823.31;4885273;29;21356;-83
2023/12/27 10:52:49;;;;;;;0.50;0.50;;;;;;;15.01;45.20;98819.03;4880769;29;20493;-85
2023/12/27 10:55:19;;;;;;;0.45;0.45;;;;;;;14.94;45.10;98825.19;4871223;29;20037;-86
2023/12/27 10:57:53;;;;;;;0.40;0.40;;;;;;;15.87;42.30;98823.63;4867365;29;20053;-85
2023/12/27 11:00:20;;;;;;;0.30;0.30;;;;;;;13.33;46.04;98825.22;4868478;29;20901;-83
2023/12/27 11:02:47;;;;;;;0.40;0.40;;;;;;;13.98;45.44;98823.72;4869856;29;20101;-84
2023/12/27 11:05:15;;;;;;;0.40;0.40;;;;;;;13.21;49.06;98824.03;4871909;29;20056;-86
2023/12/27 11:07:45;;;;;;;0.35;0.35;;;;;;;12.80;47.03;98826.75;4873394;29;20040;-85
2023/12/27 11:10:14;;;;;;;0.40;0.40;;;;;;;13.79;46.59;98822.47;4869389;29;20419;-85
2023/12/27 11:12:42;;;;;;;0.40;0.40;;;;;;;16.22;41.14;98814.94;4873593;29;20033;-84
2023/12/27 11:15:10;;;;;;;0.30;0.30;;;;;;;13.80;45.76;98817.16;4873599;29;20690;-84
2023/12/27 11:17:37;;;;;;;0.40;0.40;;;;;;;12.39;48.71;98812.44;4874223;29;20033;-85
2023/12/27 11:20:06;;;;;;;0.40;0.40;;;;;;;12.61;48.77;98811.16;4854299;29;21913;-84
2023/12/27 11:22:33;;;;;;;0.40;0.40;;;;;;;13.36;47.31;98808.28;4885859;29;20128;-86
2023/12/27 11:25:00;;;;;;;0.40;0.40;;;;;;;15.90;40.31;98801.22;4864431;29;20045;-85
2023/12/27 11:27:25;;;;;;;0.40;0.40;;;;;;;15.48;40.24;98797.19;4873191;29;20092;-87
2023/12/27 11:29:51;;;;;;;0.40;0.40;;;;;;;15.64;39.69;98791.13;4872529;29;20041;-84
2023/12/27 11:32:17;;;;;;;0.40;0.40;;;;;;;15.57;40.03;98789.22;4870895;29;20037;-84
2023/12/27 11:34:43;;;;;;;0.40;0.40;;;;;;;17.22;36.87;98772.44;4867392;29;20054;-84
2023/12/27 11:37:12;;;;;;;0.40;0.40;;;;;;;16.64;38.26;98775.75;4872963;29;20123;-85